»·PEaware :: EJA512 KSJC-KSBP

EJA512 :: KSJC-KSBP

FLIGHT INFORMATION

Flight Status: Arrived
Operator:
Netjets Aviation
More flights by this operator :: More flights under this callsign
Pilot: Max L. (36438)
Aircraft: CANADAIR CL-600 CHALLENGER
(CL60)
More flights by this aircraft type
Origin: KSJC Mineta San Jose Intl
United States
Destination: KSBP San Luis Co Regl
United States
More flights between these airports :: More routes between these airports
Route: MQO
File this flight plan on PilotEdge
Remarks:
Altitude:
(Current/Filed)
23,000ft
Speed:
(Current/Filed)
426kts
Departed: 20-Nov-23 07:46 PM
Arrived: 20-Nov-23 08:20 PM
Distance/Time
Traveled:
142nm/0:34
Distance/Time
To Go:
Arrived

Flight Plot

Page will automatically refresh every two minutes.

Flight plan parsing failed; only flown route is shown


Map Options




Map Legend


Flown Route
Filed Route
Departure Airport
Arrival Airport
Navaid (VOR, NDB)
Fix

Horizontal Profiles

Position Reports

Time Latitude Longitude Heading Altitude Ground
Speed
20-Nov-23 19:18 37.357474 -121.929599 334 59ft 0kts
20-Nov-23 19:19 37.357474 -121.929599 334 59ft 0kts
20-Nov-23 19:20 37.357474 -121.929599 334 59ft 0kts
20-Nov-23 19:21 37.357474 -121.929599 334 59ft 0kts
20-Nov-23 19:22 37.357474 -121.929599 334 59ft 0kts
20-Nov-23 19:23 37.357474 -121.929599 334 59ft 0kts
20-Nov-23 19:24 37.357474 -121.929599 334 59ft 0kts
20-Nov-23 19:25 37.357474 -121.929599 334 59ft 0kts
20-Nov-23 19:26 37.357474 -121.929599 334 59ft 0kts
20-Nov-23 19:27 37.357474 -121.929599 334 59ft 0kts
20-Nov-23 19:28 37.357474 -121.929599 334 59ft 0kts
20-Nov-23 19:29 37.357474 -121.929599 334 59ft 0kts
20-Nov-23 19:30 37.357474 -121.929599 334 59ft 0kts
20-Nov-23 19:31 37.357474 -121.929599 334 59ft 0kts
20-Nov-23 19:32 37.357474 -121.929599 334 59ft 0kts
20-Nov-23 19:33 37.357474 -121.929599 334 59ft 0kts
20-Nov-23 19:34 37.357474 -121.929599 334 59ft 0kts
20-Nov-23 19:35 37.357474 -121.929599 334 59ft 0kts
20-Nov-23 19:36 37.357474 -121.929599 334 59ft 0kts
20-Nov-23 19:37 37.357474 -121.929599 334 59ft 0kts
20-Nov-23 19:38 37.357474 -121.929599 334 59ft 0kts
20-Nov-23 19:39 37.357474 -121.929599 334 59ft 0kts
20-Nov-23 19:40 37.357504 -121.929618 332 59ft 7kts
20-Nov-23 19:41 37.356080 -121.927054 138 60ft 22kts
20-Nov-23 19:42 37.353989 -121.922329 139 62ft 20kts
20-Nov-23 19:43 37.352098 -121.919853 72 64ft 0kts
20-Nov-23 19:44 37.352852 -121.919201 331 64ft 11kts
20-Nov-23 19:45 37.381480 -121.950546 319 2886ft 193kts
20-Nov-23 19:46 37.430839 -121.978517 29 5000ft 213kts
20-Nov-23 19:47 37.428923 -121.914432 128 6203ft 230kts
20-Nov-23 19:48 37.384364 -121.856388 133 11808ft 238kts
20-Nov-23 19:49 37.336391 -121.797566 132 16416ft 251kts
20-Nov-23 19:50 37.278560 -121.730936 135 19118ft 321kts
20-Nov-23 19:51 37.209219 -121.652519 134 22608ft 347kts
20-Nov-23 19:52 37.134630 -121.570557 146 23227ft 356kts
20-Nov-23 19:53 37.041549 -121.525153 156 23249ft 361kts
20-Nov-23 19:54 36.944305 -121.482123 157 23239ft 401kts
20-Nov-23 19:55 36.831145 -121.432698 157 23247ft 436kts
20-Nov-23 19:56 36.716392 -121.382834 157 23246ft 435kts
20-Nov-23 19:57 36.601875 -121.333208 158 23242ft 436kts
20-Nov-23 19:58 36.487119 -121.283625 158 23234ft 436kts
20-Nov-23 19:59 36.372563 -121.234279 158 23234ft 436kts
20-Nov-23 20:00 36.257568 -121.184902 158 23237ft 435kts
20-Nov-23 20:01 36.147209 -121.137669 158 20616ft 412kts
20-Nov-23 20:02 36.041834 -121.092684 159 17629ft 392kts
20-Nov-23 20:03 35.941242 -121.049860 159 14679ft 374kts
20-Nov-23 20:04 35.846748 -121.009759 159 12658ft 328kts
20-Nov-23 20:05 35.766313 -120.975675 159 11175ft 295kts
20-Nov-23 20:06 35.689832 -120.943335 160 9194ft 282kts
20-Nov-23 20:07 35.614884 -120.911713 160 9034ft 286kts
20-Nov-23 20:08 35.539691 -120.880058 160 9033ft 286kts
20-Nov-23 20:09 35.464151 -120.848316 160 9021ft 286kts
20-Nov-23 20:10 35.391184 -120.817714 160 7152ft 275kts
20-Nov-23 20:11 35.319839 -120.787852 160 5069ft 267kts
20-Nov-23 20:12 35.255016 -120.751028 121 3127ft 253kts
20-Nov-23 20:13 35.241129 -120.672688 99 3002ft 227kts
20-Nov-23 20:14 35.232692 -120.596293 97 2989ft 213kts
20-Nov-23 20:15 35.211018 -120.540868 124 2245ft 153kts
20-Nov-23 20:16 35.190181 -120.556908 299 1774ft 148kts
20-Nov-23 20:17 35.213850 -120.599678 304 879ft 133kts
20-Nov-23 20:18 35.232826 -120.633181 304 273ft 107kts
20-Nov-23 20:19 35.239871 -120.643953 55 220ft 0kts
20-Nov-23 20:20 35.239873 -120.643951 55 220ft 0kts
20-Nov-23 20:21 35.237149 -120.638758 124 220ft 21kts
20-Nov-23 20:22 35.236225 -120.635776 143 220ft 0kts
20-Nov-23 20:23 35.236224 -120.635775 143 220ft 0kts
20-Nov-23 20:24 35.236224 -120.635775 143 220ft 0kts
20-Nov-23 20:25 35.236224 -120.635775 143 220ft 0kts

Navigation Log

Ident Type
Flight plan parsing failed, navigation log unavailable